sensor_id;sensor_type;location;lat;lon;timestamp;temperature;humidity
22540;DHT22;11436;50.860;4.334;2022-11-23T00:01:18;9.60;99.90
22540;DHT22;11436;50.860;4.334;2022-11-23T00:03:45;9.50;99.90
22540;DHT22;11436;50.860;4.334;2022-11-23T00:06:12;9.40;99.90
22540;DHT22;11436;50.860;4.334;2022-11-23T00:08:38;9.30;99.90
22540;DHT22;11436;50.860;4.334;2022-11-23T00:11:04;9.30;99.90
22540;DHT22;11436;50.860;4.334;2022-11-23T00:13:30;9.30;99.90
22540;DHT22;11436;50.860;4.334;2022-11-23T00:15:56;9.40;99.90
22540;DHT22;11436;50.860;4.334;2022-11-23T00:18:21;9.40;99.90
22540;DHT22;11436;50.860;4.334;2022-11-23T00:20:47;9.40;99.90
22540;DHT22;11436;50.860;4.334;2022-11-23T00:23:12;9.40;99.90
22540;DHT22;11436;50.860;4.334;2022-11-23T00:25:38;9.50;99.90
22540;DHT22;11436;50.860;4.334;2022-11-23T00:28:03;9.50;99.90
22540;DHT22;11436;50.860;4.334;2022-11-23T00:30:29;9.50;99.90
22540;DHT22;11436;50.860;4.334;2022-11-23T00:32:55;9.40;99.90
22540;DHT22;11436;50.860;4.334;2022-11-23T00:35:21;9.50;99.90
22540;DHT22;11436;50.860;4.334;2022-11-23T00:37:46;9.50;99.90
22540;DHT22;11436;50.860;4.334;2022-11-23T00:40:12;9.60;99.90
22540;DHT22;11436;50.860;4.334;2022-11-23T00:42:38;9.60;99.90
22540;DHT22;11436;50.860;4.334;2022-11-23T00:45:03;9.60;99.90
22540;DHT22;11436;50.860;4.334;2022-11-23T00:47:29;9.60;99.90
22540;DHT22;11436;50.860;4.334;2022-11-23T00:49:55;9.60;99.90
22540;DHT22;11436;50.860;4.334;2022-11-23T00:52:20;9.60;99.90
22540;DHT22;11436;50.860;4.334;2022-11-23T00:54:46;9.60;99.90
22540;DHT22;11436;50.860;4.334;2022-11-23T00:57:11;9.50;99.90
22540;DHT22;11436;50.860;4.334;2022-11-23T00:59:37;9.60;99.90
22540;DHT22;11436;50.860;4.334;2022-11-23T01:02:02;9.60;99.90
22540;DHT22;11436;50.860;4.334;2022-11-23T01:04:28;9.50;99.90
22540;DHT22;11436;50.860;4.334;2022-11-23T01:06:55;9.50;99.90
22540;DHT22;11436;50.860;4.334;2022-11-23T01:09:21;9.60;99.90
22540;DHT22;11436;50.860;4.334;2022-11-23T01:11:53;9.70;99.90
22540;DHT22;11436;50.860;4.334;2022-11-23T01:14:19;9.80;99.90
22540;DHT22;11436;50.860;4.334;2022-11-23T01:16:45;9.70;99.90
22540;DHT22;11436;50.860;4.334;2022-11-23T01:19:12;9.60;99.90
22540;DHT22;11436;50.860;4.334;2022-11-23T01:21:38;9.70;99.90
22540;DHT22;11436;50.860;4.334;2022-11-23T01:24:04;9.60;99.90
22540;DHT22;11436;50.860;4.334;2022-11-23T01:26:30;9.70;99.90
22540;DHT22;11436;50.860;4.334;2022-11-23T01:28:56;9.70;99.90
22540;DHT22;11436;50.860;4.334;2022-11-23T01:31:23;9.60;99.90
22540;DHT22;11436;50.860;4.334;2022-11-23T01:33:56;9.60;99.90
22540;DHT22;11436;50.860;4.334;2022-11-23T01:36:22;9.60;99.90
22540;DHT22;11436;50.860;4.334;2022-11-23T01:38:48;9.60;99.90
22540;DHT22;11436;50.860;4.334;2022-11-23T01:41:15;9.60;99.90
22540;DHT22;11436;50.860;4.334;2022-11-23T01:43:41;9.60;99.90
22540;DHT22;11436;50.860;4.334;2022-11-23T01:46:07;9.70;99.90
22540;DHT22;11436;50.860;4.334;2022-11-23T01:48:41;9.70;99.90
22540;DHT22;11436;50.860;4.334;2022-11-23T01:51:08;9.80;99.90
22540;DHT22;11436;50.860;4.334;2022-11-23T01:53:35;9.70;99.90
22540;DHT22;11436;50.860;4.334;2022-11-23T01:56:02;9.80;99.90
22540;DHT22;11436;50.860;4.334;2022-11-23T01:58:30;9.80;99.90
22540;DHT22;11436;50.860;4.334;2022-11-23T02:00:56;9.70;99.90
22540;DHT22;11436;50.860;4.334;2022-11-23T02:03:22;9.70;99.90
22540;DHT22;11436;50.860;4.334;2022-11-23T02:05:48;9.70;99.90
22540;DHT22;11436;50.860;4.334;2022-11-23T02:08:15;9.70;99.90
22540;DHT22;11436;50.860;4.334;2022-11-23T02:10:41;9.70;99.90
22540;DHT22;11436;50.860;4.334;2022-11-23T02:13:09;9.60;99.90
22540;DHT22;11436;50.860;4.334;2022-11-23T02:15:35;9.60;99.90
22540;DHT22;11436;50.860;4.334;2022-11-23T02:18:02;9.60;99.90
22540;DHT22;11436;50.860;4.334;2022-11-23T02:20:28;9.60;99.90
22540;DHT22;11436;50.860;4.334;2022-11-23T02:25:50;9.60;99.90
22540;DHT22;11436;50.860;4.334;2022-11-23T02:28:20;9.60;99.90
22540;DHT22;11436;50.860;4.334;2022-11-23T02:30:48;9.70;99.90
22540;DHT22;11436;50.860;4.334;2022-11-23T02:33:14;9.70;99.90
22540;DHT22;11436;50.860;4.334;2022-11-23T02:35:47;9.60;99.90
22540;DHT22;11436;50.860;4.334;2022-11-23T02:38:12;9.70;99.90
22540;DHT22;11436;50.860;4.334;2022-11-23T02:40:38;9.60;99.90
22540;DHT22;11436;50.860;4.334;2022-11-23T02:43:03;9.60;99.90
22540;DHT22;11436;50.860;4.334;2022-11-23T02:47:57;9.50;99.90
22540;DHT22;11436;50.860;4.334;2022-11-23T02:50:23;9.50;99.90
22540;DHT22;11436;50.860;4.334;2022-11-23T02:52:48;9.50;99.90
22540;DHT22;11436;50.860;4.334;2022-11-23T02:55:14;9.60;99.90
22540;DHT22;11436;50.860;4.334;2022-11-23T02:57:40;9.60;99.90
22540;DHT22;11436;50.860;4.334;2022-11-23T03:00:06;9.60;99.90
22540;DHT22;11436;50.860;4.334;2022-11-23T03:02:31;9.50;99.90
22540;DHT22;11436;50.860;4.334;2022-11-23T03:04:57;9.60;99.90
22540;DHT22;11436;50.860;4.334;2022-11-23T03:07:22;9.50;99.90
22540;DHT22;11436;50.860;4.334;2022-11-23T03:09:48;9.50;99.90
22540;DHT22;11436;50.860;4.334;2022-11-23T03:12:13;9.60;99.90
22540;DHT22;11436;50.860;4.334;2022-11-23T03:14:40;9.60;99.90
22540;DHT22;11436;50.860;4.334;2022-11-23T03:17:06;9.60;99.90
22540;DHT22;11436;50.860;4.334;2022-11-23T03:19:31;9.60;99.90
22540;DHT22;11436;50.860;4.334;2022-11-23T03:21:57;9.60;99.90
22540;DHT22;11436;50.860;4.334;2022-11-23T03:24:23;9.70;99.90
22540;DHT22;11436;50.860;4.334;2022-11-23T03:26:48;9.70;99.90
22540;DHT22;11436;50.860;4.334;2022-11-23T03:29:14;9.60;99.90
22540;DHT22;11436;50.860;4.334;2022-11-23T03:31:40;9.60;99.90
22540;DHT22;11436;50.860;4.334;2022-11-23T03:34:05;9.70;99.90
22540;DHT22;11436;50.860;4.334;2022-11-23T03:36:31;9.70;99.90
22540;DHT22;11436;50.860;4.334;2022-11-23T03:38:56;9.70;99.90
22540;DHT22;11436;50.860;4.334;2022-11-23T03:41:22;9.70;99.90
22540;DHT22;11436;50.860;4.334;2022-11-23T03:43:48;9.70;99.90
22540;DHT22;11436;50.860;4.334;2022-11-23T03:46:13;9.60;99.90
22540;DHT22;11436;50.860;4.334;2022-11-23T03:48:39;9.50;99.90
22540;DHT22;11436;50.860;4.334;2022-11-23T03:51:04;9.50;99.90
22540;DHT22;11436;50.860;4.334;2022-11-23T03:53:30;9.60;99.90
22540;DHT22;11436;50.860;4.334;2022-11-23T03:55:55;9.60;99.90
22540;DHT22;11436;50.860;4.334;2022-11-23T03:58:22;9.60;99.90
22540;DHT22;11436;50.860;4.334;2022-11-23T04:00:48;9.40;99.90
22540;DHT22;11436;50.860;4.334;2022-11-23T04:03:13;9.40;99.90
22540;DHT22;11436;50.860;4.334;2022-11-23T04:05:39;9.40;99.90
22540;DHT22;11436;50.860;4.334;2022-11-23T04:08:04;9.40;99.90
22540;DHT22;11436;50.860;4.334;2022-11-23T04:10:30;9.30;99.90
22540;DHT22;11436;50.860;4.334;2022-11-23T04:12:56;9.30;99.90
22540;DHT22;11436;50.860;4.334;2022-11-23T04:15:21;9.30;99.90
22540;DHT22;11436;50.860;4.334;2022-11-23T04:17:47;9.30;99.90
22540;DHT22;11436;50.860;4.334;2022-11-23T04:20:12;9.30;99.90
22540;DHT22;11436;50.860;4.334;2022-11-23T04:22:38;9.30;99.90
22540;DHT22;11436;50.860;4.334;2022-11-23T04:25:04;9.20;99.90
22540;DHT22;11436;50.860;4.334;2022-11-23T04:27:30;9.30;99.90
22540;DHT22;11436;50.860;4.334;2022-11-23T04:29:56;9.20;99.90
22540;DHT22;11436;50.860;4.334;2022-11-23T04:32:21;9.10;99.90
22540;DHT22;11436;50.860;4.334;2022-11-23T04:34:47;9.20;99.90
22540;DHT22;11436;50.860;4.334;2022-11-23T04:37:13;9.10;99.90
22540;DHT22;11436;50.860;4.334;2022-11-23T04:39:38;9.20;99.90
22540;DHT22;11436;50.860;4.334;2022-11-23T04:42:04;9.20;99.90
22540;DHT22;11436;50.860;4.334;2022-11-23T04:44:29;9.10;99.90
22540;DHT22;11436;50.860;4.334;2022-11-23T04:46:55;9.10;99.90
22540;DHT22;11436;50.860;4.334;2022-11-23T04:49:21;9.20;99.90
22540;DHT22;11436;50.860;4.334;2022-11-23T04:51:46;9.10;99.90
22540;DHT22;11436;50.860;4.334;2022-11-23T04:54:12;9.20;99.90
22540;DHT22;11436;50.860;4.334;2022-11-23T04:56:38;9.20;99.90
22540;DHT22;11436;50.860;4.334;2022-11-23T04:59:03;9.00;99.90
22540;DHT22;11436;50.860;4.334;2022-11-23T05:01:29;9.00;99.90
22540;DHT22;11436;50.860;4.334;2022-11-23T05:03:54;8.90;99.90
22540;DHT22;11436;50.860;4.334;2022-11-23T05:06:20;8.80;99.90
22540;DHT22;11436;50.860;4.334;2022-11-23T05:08:46;8.80;99.90
22540;DHT22;11436;50.860;4.334;2022-11-23T05:11:12;8.80;99.90
22540;DHT22;11436;50.860;4.334;2022-11-23T05:13:37;8.80;99.90
22540;DHT22;11436;50.860;4.334;2022-11-23T05:16:03;8.70;99.90
22540;DHT22;11436;50.860;4.334;2022-11-23T05:18:29;8.70;99.90
22540;DHT22;11436;50.860;4.334;2022-11-23T05:20:54;8.70;99.90
22540;DHT22;11436;50.860;4.334;2022-11-23T05:23:20;8.70;99.90
22540;DHT22;11436;50.860;4.334;2022-11-23T05:25:45;8.60;99.90
22540;DHT22;11436;50.860;4.334;2022-11-23T05:28:13;8.60;99.90
22540;DHT22;11436;50.860;4.334;2022-11-23T05:30:39;8.60;99.90
22540;DHT22;11436;50.860;4.334;2022-11-23T05:33:05;8.50;99.90
22540;DHT22;11436;50.860;4.334;2022-11-23T05:35:30;8.40;99.90
22540;DHT22;11436;50.860;4.334;2022-11-23T05:37:56;8.50;99.90
22540;DHT22;11436;50.860;4.334;2022-11-23T05:40:21;8.50;99.90
22540;DHT22;11436;50.860;4.334;2022-11-23T05:42:47;8.50;99.90
22540;DHT22;11436;50.860;4.334;2022-11-23T05:45:13;8.50;99.90
22540;DHT22;11436;50.860;4.334;2022-11-23T05:47:38;8.50;99.90
22540;DHT22;11436;50.860;4.334;2022-11-23T05:50:04;8.60;99.90
22540;DHT22;11436;50.860;4.334;2022-11-23T05:52:30;8.60;99.90
22540;DHT22;11436;50.860;4.334;2022-11-23T05:54:55;8.60;99.90
22540;DHT22;11436;50.860;4.334;2022-11-23T05:57:21;8.50;99.90
22540;DHT22;11436;50.860;4.334;2022-11-23T05:59:47;8.50;99.90
22540;DHT22;11436;50.860;4.334;2022-11-23T06:02:13;8.50;99.90
22540;DHT22;11436;50.860;4.334;2022-11-23T06:04:38;8.60;99.90
22540;DHT22;11436;50.860;4.334;2022-11-23T06:07:04;8.50;99.90
22540;DHT22;11436;50.860;4.334;2022-11-23T06:09:29;8.50;99.90
22540;DHT22;11436;50.860;4.334;2022-11-23T06:11:55;8.40;99.90
22540;DHT22;11436;50.860;4.334;2022-11-23T06:14:20;8.40;99.90
22540;DHT22;11436;50.860;4.334;2022-11-23T06:16:46;8.40;99.90
22540;DHT22;11436;50.860;4.334;2022-11-23T06:19:12;8.40;99.90
22540;DHT22;11436;50.860;4.334;2022-11-23T06:21:37;8.40;99.90
22540;DHT22;11436;50.860;4.334;2022-11-23T06:24:03;8.40;99.90
22540;DHT22;11436;50.860;4.334;2022-11-23T06:26:29;8.40;99.90
22540;DHT22;11436;50.860;4.334;2022-11-23T06:28:54;8.40;99.90
22540;DHT22;11436;50.860;4.334;2022-11-23T06:31:20;8.40;99.90
22540;DHT22;11436;50.860;4.334;2022-11-23T06:33:45;8.40;99.90
22540;DHT22;11436;50.860;4.334;2022-11-23T06:36:11;8.40;99.90
22540;DHT22;11436;50.860;4.334;2022-11-23T06:38:37;8.40;99.90
22540;DHT22;11436;50.860;4.334;2022-11-23T06:41:02;8.40;99.90
22540;DHT22;11436;50.860;4.334;2022-11-23T06:43:28;8.30;99.90
22540;DHT22;11436;50.860;4.334;2022-11-23T06:45:54;8.40;99.90
22540;DHT22;11436;50.860;4.334;2022-11-23T06:48:20;8.40;99.90
22540;DHT22;11436;50.860;4.334;2022-11-23T06:50:46;8.40;99.90
22540;DHT22;11436;50.860;4.334;2022-11-23T06:53:12;8.30;99.90
22540;DHT22;11436;50.860;4.334;2022-11-23T06:55:38;8.30;99.90
22540;DHT22;11436;50.860;4.334;2022-11-23T06:58:03;8.20;99.90
22540;DHT22;11436;50.860;4.334;2022-11-23T07:00:31;8.10;99.90
22540;DHT22;11436;50.860;4.334;2022-11-23T07:02:56;7.90;99.90
22540;DHT22;11436;50.860;4.334;2022-11-23T07:05:22;7.90;99.90
22540;DHT22;11436;50.860;4.334;2022-11-23T07:07:48;7.90;99.90
22540;DHT22;11436;50.860;4.334;2022-11-23T07:10:14;7.70;99.90
22540;DHT22;11436;50.860;4.334;2022-11-23T07:12:39;7.70;99.90
22540;DHT22;11436;50.860;4.334;2022-11-23T07:15:05;7.70;99.90
22540;DHT22;11436;50.860;4.334;2022-11-23T07:17:32;7.80;99.90
22540;DHT22;11436;50.860;4.334;2022-11-23T07:19:57;7.80;99.90
22540;DHT22;11436;50.860;4.334;2022-11-23T07:22:23;7.60;99.90
22540;DHT22;11436;50.860;4.334;2022-11-23T07:24:49;7.70;99.90
22540;DHT22;11436;50.860;4.334;2022-11-23T07:27:17;7.60;99.90
22540;DHT22;11436;50.860;4.334;2022-11-23T07:29:44;7.60;99.90
22540;DHT22;11436;50.860;4.334;2022-11-23T07:32:10;7.60;99.90
22540;DHT22;11436;50.860;4.334;2022-11-23T07:34:36;7.60;99.90
22540;DHT22;11436;50.860;4.334;2022-11-23T07:37:01;7.60;99.90
22540;DHT22;11436;50.860;4.334;2022-11-23T07:39:28;7.70;99.90
22540;DHT22;11436;50.860;4.334;2022-11-23T07:41:54;7.60;99.90
22540;DHT22;11436;50.860;4.334;2022-11-23T07:44:21;7.70;99.90
22540;DHT22;11436;50.860;4.334;2022-11-23T07:46:46;7.70;99.90
22540;DHT22;11436;50.860;4.334;2022-11-23T07:49:12;7.60;99.90
22540;DHT22;11436;50.860;4.334;2022-11-23T07:51:38;7.60;99.90
22540;DHT22;11436;50.860;4.334;2022-11-23T07:54:03;7.60;99.90
22540;DHT22;11436;50.860;4.334;2022-11-23T07:56:29;7.50;99.90
22540;DHT22;11436;50.860;4.334;2022-11-23T07:58:54;7.50;99.90
22540;DHT22;11436;50.860;4.334;2022-11-23T08:01:20;7.50;99.90
22540;DHT22;11436;50.860;4.334;2022-11-23T08:03:46;7.40;99.90
22540;DHT22;11436;50.860;4.334;2022-11-23T08:06:13;7.40;99.90
22540;DHT22;11436;50.860;4.334;2022-11-23T08:08:39;7.50;99.90
22540;DHT22;11436;50.860;4.334;2022-11-23T08:11:05;7.60;99.90
22540;DHT22;11436;50.860;4.334;2022-11-23T08:13:31;7.60;99.90
22540;DHT22;11436;50.860;4.334;2022-11-23T08:15:59;7.70;99.90
22540;DHT22;11436;50.860;4.334;2022-11-23T08:18:25;7.80;99.90
22540;DHT22;11436;50.860;4.334;2022-11-23T08:20:51;7.80;99.90
22540;DHT22;11436;50.860;4.334;2022-11-23T08:23:17;7.90;99.90
22540;DHT22;11436;50.860;4.334;2022-11-23T08:25:43;8.00;99.90
22540;DHT22;11436;50.860;4.334;2022-11-23T08:28:09;8.10;99.90
22540;DHT22;11436;50.860;4.334;2022-11-23T08:30:34;8.10;99.90
22540;DHT22;11436;50.860;4.334;2022-11-23T08:33:01;8.20;99.90
22540;DHT22;11436;50.860;4.334;2022-11-23T08:35:27;8.30;99.90
22540;DHT22;11436;50.860;4.334;2022-11-23T08:37:53;8.30;99.90
22540;DHT22;11436;50.860;4.334;2022-11-23T08:40:18;8.40;99.90
22540;DHT22;11436;50.860;4.334;2022-11-23T08:42:45;8.50;99.90
22540;DHT22;11436;50.860;4.334;2022-11-23T08:45:11;8.60;99.90
22540;DHT22;11436;50.860;4.334;2022-11-23T08:47:37;8.60;99.90
22540;DHT22;11436;50.860;4.334;2022-11-23T08:50:02;8.60;99.90
22540;DHT22;11436;50.860;4.334;2022-11-23T08:52:28;8.70;99.90
22540;DHT22;11436;50.860;4.334;2022-11-23T08:54:54;8.60;99.90
22540;DHT22;11436;50.860;4.334;2022-11-23T08:57:19;8.70;99.90
22540;DHT22;11436;50.860;4.334;2022-11-23T08:59:45;8.90;99.90
22540;DHT22;11436;50.860;4.334;2022-11-23T09:02:11;8.90;99.90
22540;DHT22;11436;50.860;4.334;2022-11-23T09:04:38;9.00;99.90
22540;DHT22;11436;50.860;4.334;2022-11-23T09:07:04;9.20;99.90
22540;DHT22;11436;50.860;4.334;2022-11-23T09:09:30;9.30;99.90
22540;DHT22;11436;50.860;4.334;2022-11-23T09:11:56;9.10;99.90
22540;DHT22;11436;50.860;4.334;2022-11-23T09:14:22;9.20;99.90
22540;DHT22;11436;50.860;4.334;2022-11-23T09:16:48;9.00;99.90
22540;DHT22;11436;50.860;4.334;2022-11-23T09:19:13;9.00;99.90
22540;DHT22;11436;50.860;4.334;2022-11-23T09:21:39;8.90;99.90
22540;DHT22;11436;50.860;4.334;2022-11-23T09:24:06;9.10;99.90
22540;DHT22;11436;50.860;4.334;2022-11-23T09:27:31;9.30;99.90
22540;DHT22;11436;50.860;4.334;2022-11-23T09:29:57;9.30;99.90
22540;DHT22;11436;50.860;4.334;2022-11-23T09:32:23;9.30;99.90
22540;DHT22;11436;50.860;4.334;2022-11-23T09:34:48;9.40;99.90
22540;DHT22;11436;50.860;4.334;2022-11-23T09:37:14;9.60;99.90
22540;DHT22;11436;50.860;4.334;2022-11-23T09:39:40;9.70;99.90
22540;DHT22;11436;50.860;4.334;2022-11-23T09:42:33;9.70;99.90
22540;DHT22;11436;50.860;4.334;2022-11-23T09:53:52;9.70;99.90
22540;DHT22;11436;50.860;4.334;2022-11-23T09:56:26;9.80;99.90
22540;DHT22;11436;50.860;4.334;2022-11-23T09:58:58;9.90;99.90
22540;DHT22;11436;50.860;4.334;2022-11-23T10:01:24;9.80;99.90
22540;DHT22;11436;50.860;4.334;2022-11-23T10:03:55;9.90;99.90
22540;DHT22;11436;50.860;4.334;2022-11-23T10:06:24;9.90;99.90
22540;DHT22;11436;50.860;4.334;2022-11-23T10:14:20;9.90;99.90
22540;DHT22;11436;50.860;4.334;2022-11-23T10:22:42;10.00;99.90
22540;DHT22;11436;50.860;4.334;2022-11-23T10:25:16;10.10;99.90
22540;DHT22;11436;50.860;4.334;2022-11-23T10:27:43;10.30;99.90
22540;DHT22;11436;50.860;4.334;2022-11-23T10:30:15;10.50;99.90
22540;DHT22;11436;50.860;4.334;2022-11-23T10:33:01;10.40;99.90
22540;DHT22;11436;50.860;4.334;2022-11-23T10:35:32;10.40;99.90
22540;DHT22;11436;50.860;4.334;2022-11-23T10:40:38;10.50;99.90
22540;DHT22;11436;50.860;4.334;2022-11-23T10:43:13;10.50;99.90
22540;DHT22;11436;50.860;4.334;2022-11-23T10:45:42;10.40;99.90
22540;DHT22;11436;50.860;4.334;2022-11-23T10:48:08;10.40;99.90
22540;DHT22;11436;50.860;4.334;2022-11-23T10:50:36;10.60;99.90
22540;DHT22;11436;50.860;4.334;2022-11-23T10:55:55;10.60;99.90
22540;DHT22;11436;50.860;4.334;2022-11-23T10:58:29;10.60;99.90
22540;DHT22;11436;50.860;4.334;2022-11-23T11:01:11;10.80;99.90
22540;DHT22;11436;50.860;4.334;2022-11-23T11:03:37;10.80;99.90
22540;DHT22;11436;50.860;4.334;2022-11-23T11:06:03;10.80;99.90
22540;DHT22;11436;50.860;4.334;2022-11-23T11:08:33;10.80;99.90
22540;DHT22;11436;50.860;4.334;2022-11-23T11:13:44;11.00;99.90
22540;DHT22;11436;50.860;4.334;2022-11-23T11:16:19;11.00;99.90
22540;DHT22;11436;50.860;4.334;2022-11-23T11:18:46;11.10;99.90
22540;DHT22;11436;50.860;4.334;2022-11-23T11:21:20;11.20;99.90
22540;DHT22;11436;50.860;4.334;2022-11-23T11:24:16;11.20;99.90
22540;DHT22;11436;50.860;4.334;2022-11-23T11:26:58;11.20;99.90
22540;DHT22;11436;50.860;4.334;2022-11-23T11:32:40;11.40;99.90
22540;DHT22;11436;50.860;4.334;2022-11-23T11:37:43;11.30;99.90
22540;DHT22;11436;50.860;4.334;2022-11-23T11:40:16;11.50;99.90
22540;DHT22;11436;50.860;4.334;2022-11-23T11:42:49;11.50;99.90
22540;DHT22;11436;50.860;4.334;2022-11-23T11:45:35;11.60;99.90
22540;DHT22;11436;50.860;4.334;2022-11-23T11:48:07;11.60;99.90
22540;DHT22;11436;50.860;4.334;2022-11-23T11:51:09;11.50;99.90
22540;DHT22;11436;50.860;4.334;2022-11-23T11:56:54;11.60;99.90
22540;DHT22;11436;50.860;4.334;2022-11-23T11:59:26;11.60;99.90
22540;DHT22;11436;50.860;4.334;2022-11-23T12:02:13;11.50;99.90
22540;DHT22;11436;50.860;4.334;2022-11-23T12:07:35;11.10;99.90
22540;DHT22;11436;50.860;4.334;2022-11-23T12:12:54;11.10;99.90
22540;DHT22;11436;50.860;4.334;2022-11-23T12:15:25;11.00;99.90
22540;DHT22;11436;50.860;4.334;2022-11-23T12:21:03;10.90;99.90
22540;DHT22;11436;50.860;4.334;2022-11-23T12:26:23;10.60;99.90
22540;DHT22;11436;50.860;4.334;2022-11-23T12:31:49;10.40;99.90
22540;DHT22;11436;50.860;4.334;2022-11-23T12:34:36;10.40;99.90
22540;DHT22;11436;50.860;4.334;2022-11-23T12:42:49;10.20;99.90
22540;DHT22;11436;50.860;4.334;2022-11-23T12:45:28;10.10;99.90
22540;DHT22;11436;50.860;4.334;2022-11-23T12:59:54;9.60;99.90
22540;DHT22;11436;50.860;4.334;2022-11-23T13:14:20;9.60;99.90
22540;DHT22;11436;50.860;4.334;2022-11-23T13:17:03;9.50;99.90
22540;DHT22;11436;50.860;4.334;2022-11-23T13:19:40;9.50;99.90
22540;DHT22;11436;50.860;4.334;2022-11-23T13:22:16;9.50;99.90
22540;DHT22;11436;50.860;4.334;2022-11-23T13:30:30;9.50;99.90
22540;DHT22;11436;50.860;4.334;2022-11-23T13:32:59;9.30;99.90
22540;DHT22;11436;50.860;4.334;2022-11-23T13:42:53;9.20;99.90
22540;DHT22;11436;50.860;4.334;2022-11-23T13:45:28;9.20;99.90
22540;DHT22;11436;50.860;4.334;2022-11-23T13:50:56;9.20;99.90
22540;DHT22;11436;50.860;4.334;2022-11-23T13:53:42;9.30;99.90
22540;DHT22;11436;50.860;4.334;2022-11-23T13:58:50;9.20;99.90
22540;DHT22;11436;50.860;4.334;2022-11-23T14:04:22;9.20;99.90
22540;DHT22;11436;50.860;4.334;2022-11-23T14:09:23;9.10;99.90
22540;DHT22;11436;50.860;4.334;2022-11-23T14:23:37;9.10;99.90
22540;DHT22;11436;50.860;4.334;2022-11-23T14:25:51;9.20;99.90
22540;DHT22;11436;50.860;4.334;2022-11-23T14:31:23;9.00;99.90
22540;DHT22;11436;50.860;4.334;2022-11-23T14:34:32;9.00;99.90
22540;DHT22;11436;50.860;4.334;2022-11-23T14:42:12;9.00;99.90
22540;DHT22;11436;50.860;4.334;2022-11-23T14:44:40;9.00;99.90
22540;DHT22;11436;50.860;4.334;2022-11-23T14:47:08;9.10;99.90
22540;DHT22;11436;50.860;4.334;2022-11-23T14:49:34;9.10;99.90
22540;DHT22;11436;50.860;4.334;2022-11-23T14:52:02;9.20;99.90
22540;DHT22;11436;50.860;4.334;2022-11-23T14:54:29;9.20;99.90
22540;DHT22;11436;50.860;4.334;2022-11-23T14:56:59;9.30;99.90
22540;DHT22;11436;50.860;4.334;2022-11-23T14:59:29;9.30;99.90
22540;DHT22;11436;50.860;4.334;2022-11-23T15:04:35;9.20;99.90
22540;DHT22;11436;50.860;4.334;2022-11-23T15:07:09;9.20;99.90
22540;DHT22;11436;50.860;4.334;2022-11-23T15:12:44;9.40;99.90
22540;DHT22;11436;50.860;4.334;2022-11-23T15:15:22;9.50;99.90
22540;DHT22;11436;50.860;4.334;2022-11-23T15:17:59;9.40;99.90
22540;DHT22;11436;50.860;4.334;2022-11-23T15:20:42;9.40;99.90
22540;DHT22;11436;50.860;4.334;2022-11-23T15:23:33;9.40;99.90
22540;DHT22;11436;50.860;4.334;2022-11-23T15:26:03;9.50;99.90
22540;DHT22;11436;50.860;4.334;2022-11-23T15:28:31;9.50;99.90
22540;DHT22;11436;50.860;4.334;2022-11-23T15:30:58;9.40;99.90
22540;DHT22;11436;50.860;4.334;2022-11-23T15:33:24;9.40;99.90
22540;DHT22;11436;50.860;4.334;2022-11-23T15:35:52;9.30;99.90
22540;DHT22;11436;50.860;4.334;2022-11-23T15:38:19;9.30;99.90
22540;DHT22;11436;50.860;4.334;2022-11-23T15:40:47;9.20;99.90
22540;DHT22;11436;50.860;4.334;2022-11-23T15:43:15;9.30;99.90
22540;DHT22;11436;50.860;4.334;2022-11-23T15:50:57;9.30;99.90
22540;DHT22;11436;50.860;4.334;2022-11-23T15:53:49;9.20;99.90
22540;DHT22;11436;50.860;4.334;2022-11-23T15:56:34;9.10;99.90
22540;DHT22;11436;50.860;4.334;2022-11-23T15:59:17;9.10;99.90
22540;DHT22;11436;50.860;4.334;2022-11-23T16:01:45;9.10;99.90
22540;DHT22;11436;50.860;4.334;2022-11-23T16:04:40;9.20;99.90
22540;DHT22;11436;50.860;4.334;2022-11-23T16:07:23;9.20;99.90
22540;DHT22;11436;50.860;4.334;2022-11-23T16:12:33;9.10;99.90
22540;DHT22;11436;50.860;4.334;2022-11-23T16:18:19;9.10;99.90
22540;DHT22;11436;50.860;4.334;2022-11-23T16:20:49;9.10;99.90
22540;DHT22;11436;50.860;4.334;2022-11-23T16:23:27;9.10;99.90
22540;DHT22;11436;50.860;4.334;2022-11-23T16:26:01;9.10;99.90
22540;DHT22;11436;50.860;4.334;2022-11-23T16:28:29;9.00;99.90
22540;DHT22;11436;50.860;4.334;2022-11-23T16:30:55;9.10;99.90
22540;DHT22;11436;50.860;4.334;2022-11-23T16:33:22;9.10;99.90
22540;DHT22;11436;50.860;4.334;2022-11-23T16:35:49;9.10;99.90
22540;DHT22;11436;50.860;4.334;2022-11-23T16:38:15;9.00;99.90
22540;DHT22;11436;50.860;4.334;2022-11-23T16:40:42;9.00;99.90
22540;DHT22;11436;50.860;4.334;2022-11-23T16:43:09;9.00;99.90
22540;DHT22;11436;50.860;4.334;2022-11-23T16:45:38;9.00;99.90
22540;DHT22;11436;50.860;4.334;2022-11-23T16:50:52;9.00;99.90
22540;DHT22;11436;50.860;4.334;2022-11-23T16:53:20;9.00;99.90
22540;DHT22;11436;50.860;4.334;2022-11-23T16:55:56;8.90;99.90
22540;DHT22;11436;50.860;4.334;2022-11-23T16:58:24;9.00;99.90
22540;DHT22;11436;50.860;4.334;2022-11-23T17:00:50;9.00;99.90
22540;DHT22;11436;50.860;4.334;2022-11-23T17:03:18;9.00;99.90
22540;DHT22;11436;50.860;4.334;2022-11-23T17:05:45;9.00;99.90
22540;DHT22;11436;50.860;4.334;2022-11-23T17:08:11;9.10;99.90
22540;DHT22;11436;50.860;4.334;2022-11-23T17:10:38;9.10;99.90
22540;DHT22;11436;50.860;4.334;2022-11-23T17:13:09;9.00;99.90
22540;DHT22;11436;50.860;4.334;2022-11-23T17:15:37;9.10;99.90
22540;DHT22;11436;50.860;4.334;2022-11-23T17:18:03;9.10;99.90
22540;DHT22;11436;50.860;4.334;2022-11-23T17:20:29;9.00;99.90
22540;DHT22;11436;50.860;4.334;2022-11-23T17:22:55;9.00;99.90
22540;DHT22;11436;50.860;4.334;2022-11-23T17:25:25;9.00;99.90
22540;DHT22;11436;50.860;4.334;2022-11-23T17:27:51;9.10;99.90
22540;DHT22;11436;50.860;4.334;2022-11-23T17:30:21;9.10;99.90
22540;DHT22;11436;50.860;4.334;2022-11-23T17:32:47;9.10;99.90
22540;DHT22;11436;50.860;4.334;2022-11-23T17:35:14;9.10;99.90
22540;DHT22;11436;50.860;4.334;2022-11-23T17:37:40;9.10;99.90
22540;DHT22;11436;50.860;4.334;2022-11-23T17:40:17;9.10;99.90
22540;DHT22;11436;50.860;4.334;2022-11-23T17:42:44;9.10;99.90
22540;DHT22;11436;50.860;4.334;2022-11-23T17:45:10;9.00;99.90
22540;DHT22;11436;50.860;4.334;2022-11-23T17:47:36;9.10;99.90
22540;DHT22;11436;50.860;4.334;2022-11-23T17:50:04;9.10;99.90
22540;DHT22;11436;50.860;4.334;2022-11-23T17:52:31;9.20;99.90
22540;DHT22;11436;50.860;4.334;2022-11-23T17:54:57;9.20;99.90
22540;DHT22;11436;50.860;4.334;2022-11-23T17:57:25;9.30;99.90
22540;DHT22;11436;50.860;4.334;2022-11-23T17:59:53;9.20;99.90
22540;DHT22;11436;50.860;4.334;2022-11-23T18:02:20;9.20;99.90
22540;DHT22;11436;50.860;4.334;2022-11-23T18:04:46;9.30;99.90
22540;DHT22;11436;50.860;4.334;2022-11-23T18:07:13;9.20;99.90
22540;DHT22;11436;50.860;4.334;2022-11-23T18:09:40;9.20;99.90
22540;DHT22;11436;50.860;4.334;2022-11-23T18:12:06;9.20;99.90
22540;DHT22;11436;50.860;4.334;2022-11-23T18:14:32;9.30;99.90
22540;DHT22;11436;50.860;4.334;2022-11-23T18:16:58;9.30;99.90
22540;DHT22;11436;50.860;4.334;2022-11-23T18:19:23;9.30;99.90
22540;DHT22;11436;50.860;4.334;2022-11-23T18:21:49;9.30;99.90